createdAt,value
2023-05-20T00:02:07.294Z,16.68
2023-05-20T00:05:08.976Z,16.63
2023-05-20T00:08:11.017Z,16.68
2023-05-20T00:11:12.456Z,16.62
2023-05-20T00:14:14.246Z,16.55
2023-05-20T00:17:15.689Z,16.54
2023-05-20T00:20:17.156Z,16.46
2023-05-20T00:23:18.616Z,16.40
2023-05-20T00:26:21.254Z,16.33
2023-05-20T00:29:28.397Z,16.37
2023-05-20T00:32:29.951Z,16.30
2023-05-20T00:35:31.659Z,16.29
2023-05-20T00:38:34.019Z,16.31
2023-05-20T00:41:35.805Z,16.30
2023-05-20T00:44:37.233Z,16.28
2023-05-20T00:47:39.086Z,16.26
2023-05-20T00:50:40.588Z,16.21
2023-05-20T00:53:42.217Z,16.23
2023-05-20T00:56:44.553Z,16.19
2023-05-20T00:59:46.081Z,16.21
2023-05-20T01:02:47.707Z,16.22
2023-05-20T01:05:49.346Z,16.17
2023-05-20T01:08:51.222Z,16.16
2023-05-20T01:11:59.855Z,16.12
2023-05-20T01:15:09.428Z,16.10
2023-05-20T01:18:13.431Z,16.12
2023-05-20T01:21:15.814Z,16.06
2023-05-20T01:24:17.263Z,16.08
2023-05-20T01:27:20.542Z,16.11
2023-05-20T01:30:22.580Z,16.15
2023-05-20T01:33:25.625Z,16.20
2023-05-20T01:36:28.398Z,16.09
2023-05-20T01:39:30.884Z,16.07
2023-05-20T01:42:33.843Z,16.04
2023-05-20T01:45:35.731Z,16.08
2023-05-20T01:48:38.281Z,16.01
2023-05-20T01:51:39.780Z,16.05
2023-05-20T01:54:41.236Z,16.02
2023-05-20T01:57:42.674Z,16.00
2023-05-20T02:00:44.643Z,16.00
2023-05-20T02:03:46.091Z,16.07
2023-05-20T02:06:47.530Z,16.02
2023-05-20T02:09:49.740Z,16.05
2023-05-20T02:12:51.262Z,15.99
2023-05-20T02:15:52.799Z,16.04
2023-05-20T02:18:54.313Z,16.07
2023-05-20T02:21:55.912Z,15.98
2023-05-20T02:24:57.339Z,15.93
2023-05-20T02:27:58.825Z,15.86
2023-05-20T02:31:02.376Z,15.87
2023-05-20T02:34:06.116Z,15.92
2023-05-20T02:37:07.689Z,15.91
2023-05-20T02:40:09.533Z,15.78
2023-05-20T02:43:12.707Z,15.80
2023-05-20T02:46:15.731Z,15.85
2023-05-20T02:49:17.180Z,15.83
2023-05-20T02:52:18.824Z,15.88
2023-05-20T02:55:20.289Z,15.93
2023-05-20T02:58:26.218Z,15.90
2023-05-20T03:01:29.065Z,15.91
2023-05-20T03:04:31.585Z,15.90
2023-05-20T03:07:36.453Z,15.91
2023-05-20T03:10:40.714Z,15.97
2023-05-20T03:13:42.148Z,15.99
2023-05-20T03:16:43.650Z,15.99
2023-05-20T03:19:45.081Z,15.96
2023-05-20T03:22:46.556Z,15.99
2023-05-20T03:25:48.702Z,15.90
2023-05-20T03:28:50.143Z,15.91
2023-05-20T03:31:51.989Z,15.90
2023-05-20T03:34:54.504Z,15.93
2023-05-20T03:37:56.241Z,15.96
2023-05-20T03:40:59.368Z,15.97
2023-05-20T03:44:01.004Z,15.87
2023-05-20T03:47:02.756Z,15.87
2023-05-20T03:50:06.439Z,15.88
2023-05-20T03:53:08.004Z,15.90
2023-05-20T03:56:13.782Z,15.86
2023-05-20T03:59:16.275Z,15.82
2023-05-20T04:02:17.924Z,15.83
2023-05-20T04:05:19.688Z,15.83
2023-05-20T04:08:22.152Z,15.77
2023-05-20T04:11:24.025Z,15.73
2023-05-20T04:14:25.603Z,15.74
2023-05-20T04:17:31.279Z,15.67
2023-05-20T04:20:33.156Z,15.66
2023-05-20T04:23:35.447Z,15.56
2023-05-20T04:26:37.563Z,15.59
2023-05-20T04:29:41.426Z,15.60
2023-05-20T04:32:42.961Z,15.66
2023-05-20T04:35:44.832Z,15.65
2023-05-20T04:38:47.328Z,15.65
2023-05-20T04:41:49.222Z,15.62
2023-05-20T04:44:51.582Z,15.70
2023-05-20T04:47:53.452Z,15.69
2023-05-20T04:50:55.071Z,15.44
2023-05-20T04:53:56.630Z,15.16
2023-05-20T04:56:58.696Z,14.90
2023-05-20T05:00:00.981Z,14.83
2023-05-20T05:03:04.033Z,14.74
2023-05-20T05:06:05.517Z,14.66
2023-05-20T05:09:07.915Z,14.77
2023-05-20T05:12:12.507Z,14.73
2023-05-20T05:15:14.155Z,14.73
2023-05-20T05:18:18.489Z,14.72
2023-05-20T05:21:20.108Z,14.76
2023-05-20T05:24:22.920Z,14.75
2023-05-20T05:27:24.870Z,14.79
2023-05-20T05:30:26.983Z,14.87
2023-05-20T05:33:28.719Z,14.95
2023-05-20T05:36:33.834Z,15.04
2023-05-20T05:39:40.714Z,15.15
2023-05-20T05:42:42.185Z,15.26
2023-05-20T05:45:43.722Z,15.28
2023-05-20T05:48:48.858Z,15.32
2023-05-20T05:51:51.401Z,15.40
2023-05-20T05:54:54.218Z,15.47
2023-05-20T05:57:56.684Z,15.60
2023-05-20T06:00:58.468Z,15.77
2023-05-20T06:04:00.150Z,15.69
2023-05-20T06:07:02.146Z,15.82
2023-05-20T06:10:03.880Z,15.99
2023-05-20T06:13:05.659Z,16.05
2023-05-20T06:16:07.904Z,16.16
2023-05-20T06:19:09.548Z,16.21
2023-05-20T06:22:11.306Z,16.13
2023-05-20T06:25:14.160Z,16.17
2023-05-20T06:28:16.509Z,16.21
2023-05-20T06:31:18.111Z,16.30
2023-05-20T06:34:19.633Z,16.39
2023-05-20T06:37:24.240Z,16.39
2023-05-20T06:40:27.195Z,16.43
2023-05-20T06:43:29.381Z,16.44
2023-05-20T06:46:44.648Z,16.57
2023-05-20T06:49:49.622Z,16.63
2023-05-20T06:52:51.165Z,16.74
2023-05-20T06:55:56.040Z,16.92
2023-05-20T06:58:57.645Z,17.04
2023-05-20T07:01:59.623Z,17.18
2023-05-20T07:05:01.334Z,17.33
2023-05-20T07:08:02.823Z,17.49
2023-05-20T07:11:04.421Z,17.67
2023-05-20T07:14:06.007Z,17.88
2023-05-20T07:17:07.718Z,18.08
2023-05-20T07:20:09.618Z,18.32
2023-05-20T07:23:11.705Z,18.43
2023-05-20T07:26:17.093Z,18.58
2023-05-20T07:29:18.646Z,18.79
2023-05-20T07:32:20.205Z,18.90
2023-05-20T07:35:21.874Z,19.07
2023-05-20T07:38:23.450Z,19.02
2023-05-20T07:41:31.923Z,19.14
2023-05-20T07:44:33.795Z,19.33
2023-05-20T07:47:35.676Z,19.32
2023-05-20T07:50:37.227Z,19.31
2023-05-20T07:53:39.513Z,19.31
2023-05-20T07:56:41.207Z,19.59
2023-05-20T07:59:44.890Z,19.77
2023-05-20T08:02:46.754Z,19.75
2023-05-20T08:05:53.291Z,20.04
2023-05-20T08:08:55.069Z,20.31
2023-05-20T08:12:03.202Z,20.26
2023-05-20T08:15:05.537Z,20.15
2023-05-20T08:18:07.089Z,20.01
2023-05-20T08:21:09.889Z,20.16
2023-05-20T08:24:11.607Z,20.39
2023-05-20T08:27:13.969Z,20.64
2023-05-20T08:30:15.511Z,20.55
2023-05-20T08:33:19.237Z,20.18
2023-05-20T08:36:20.666Z,20.36
2023-05-20T08:39:22.142Z,20.60
2023-05-20T08:42:24.441Z,20.91
2023-05-20T08:45:32.696Z,21.07
2023-05-20T08:48:39.748Z,20.77
2023-05-20T08:51:42.901Z,21.11
2023-05-20T08:54:46.454Z,20.90
2023-05-20T08:57:49.486Z,20.93
2023-05-20T09:00:52.918Z,20.97
2023-05-20T09:03:54.336Z,20.98
2023-05-20T09:06:55.827Z,20.91
2023-05-20T09:09:58.310Z,20.95
2023-05-20T09:13:02.632Z,20.97
2023-05-20T09:16:04.377Z,20.73
2023-05-20T09:19:07.463Z,20.92
2023-05-20T09:22:08.976Z,21.57
2023-05-20T09:25:12.305Z,21.85
2023-05-20T09:28:13.771Z,21.97
2023-05-20T09:31:16.360Z,21.36
2023-05-20T09:34:18.118Z,21.45
2023-05-20T09:37:21.718Z,21.82
2023-05-20T09:40:28.321Z,21.98
2023-05-20T09:43:30.022Z,22.12
2023-05-20T09:46:31.656Z,22.05
2023-05-20T09:49:35.108Z,22.12
2023-05-20T09:52:39.818Z,22.09
2023-05-20T09:55:42.417Z,21.82
2023-05-20T09:58:44.957Z,21.69
2023-05-20T10:01:46.707Z,21.58
2023-05-20T10:04:52.106Z,21.48
2023-05-20T10:08:18.344Z,21.59
2023-05-20T10:11:30.931Z,21.71
2023-05-20T10:14:59.449Z,21.87
2023-05-20T10:18:30.579Z,22.19
2023-05-20T10:21:32.813Z,22.41
2023-05-20T10:24:42.892Z,22.75
2023-05-20T10:27:46.942Z,22.84
2023-05-20T10:30:51.533Z,23.03
2023-05-20T10:33:54.302Z,23.25
2023-05-20T10:36:55.749Z,23.47
2023-05-20T10:40:11.465Z,23.55
2023-05-20T10:43:15.953Z,23.77
2023-05-20T10:46:32.655Z,23.87
2023-05-20T10:49:44.128Z,23.93
2023-05-20T10:52:45.641Z,23.77
2023-05-20T10:55:51.701Z,23.77
2023-05-20T10:58:54.617Z,24.27
2023-05-20T11:01:56.277Z,24.28
2023-05-20T11:04:58.413Z,24.26
2023-05-20T11:08:08.069Z,23.75
2023-05-20T11:11:13.415Z,23.92
2023-05-20T11:14:16.346Z,24.15
2023-05-20T11:17:19.015Z,24.06
2023-05-20T11:20:20.812Z,23.66
2023-05-20T11:23:23.400Z,23.79
2023-05-20T11:26:24.869Z,23.60
2023-05-20T11:29:27.095Z,23.46
2023-05-20T11:32:28.692Z,23.32
2023-05-20T11:35:33.315Z,23.23
2023-05-20T11:38:34.725Z,23.38
2023-05-20T11:41:36.171Z,23.27
2023-05-20T11:44:42.951Z,23.21
2023-05-20T11:47:44.476Z,23.33
2023-05-20T11:50:47.433Z,23.33
2023-05-20T11:53:48.841Z,23.39
2023-05-20T11:56:50.678Z,23.69
2023-05-20T11:59:52.145Z,23.95
2023-05-20T12:02:54.017Z,24.17
2023-05-20T12:05:55.577Z,23.77
2023-05-20T12:08:57.279Z,23.64
2023-05-20T12:11:59.316Z,23.67
2023-05-20T12:15:00.834Z,23.35
2023-05-20T12:18:02.561Z,23.29
2023-05-20T12:21:04.349Z,23.13
2023-05-20T12:24:06.927Z,23.39
2023-05-20T12:27:08.496Z,23.40
2023-05-20T12:30:10.647Z,23.48
2023-05-20T12:33:12.562Z,23.23
2023-05-20T12:36:14.669Z,23.40
2023-05-20T12:39:18.344Z,23.31
2023-05-20T12:42:19.869Z,23.52
2023-05-20T12:45:21.370Z,23.33
2023-05-20T12:48:22.810Z,23.36
2023-05-20T12:51:24.242Z,23.60
2023-05-20T12:54:28.130Z,23.78
2023-05-20T12:57:29.791Z,24.11
2023-05-20T13:00:31.315Z,24.06
2023-05-20T13:03:33.045Z,23.82
2023-05-20T13:06:34.888Z,23.70
2023-05-20T13:09:36.329Z,23.55
2023-05-20T13:12:38.204Z,23.59
2023-05-20T13:15:39.904Z,23.68
2023-05-20T13:18:41.491Z,23.73
2023-05-20T13:21:42.919Z,23.45
2023-05-20T13:24:44.356Z,23.39
2023-05-20T13:27:45.927Z,23.40
2023-05-20T13:30:47.449Z,23.54
2023-05-20T13:33:48.905Z,23.61
2023-05-20T13:36:50.945Z,23.65
2023-05-20T13:39:53.363Z,23.61
2023-05-20T13:42:55.169Z,23.48
2023-05-20T13:45:56.667Z,23.45
2023-05-20T13:48:58.179Z,23.69
2023-05-20T13:51:59.676Z,23.68
2023-05-20T13:55:01.228Z,23.68
2023-05-20T13:58:02.743Z,23.65
2023-05-20T14:01:06.122Z,23.67
2023-05-20T14:04:07.552Z,23.72
2023-05-20T14:07:09.982Z,23.76
2023-05-20T14:10:11.695Z,23.74
2023-05-20T14:13:13.539Z,23.79
2023-05-20T14:16:15.108Z,23.83
2023-05-20T14:19:16.718Z,23.77
2023-05-20T14:22:19.814Z,23.69
2023-05-20T14:25:21.509Z,23.80
2023-05-20T14:28:23.437Z,23.99
2023-05-20T14:31:26.201Z,24.24
2023-05-20T14:34:27.716Z,24.11
2023-05-20T14:37:29.581Z,24.04
2023-05-20T14:40:31.107Z,23.94
2023-05-20T14:43:32.693Z,24.05
2023-05-20T14:46:34.386Z,24.18
2023-05-20T14:49:39.012Z,24.32
2023-05-20T14:52:40.514Z,24.29
2023-05-20T14:55:42.074Z,24.38
2023-05-20T14:58:43.617Z,24.20
2023-05-20T15:01:45.087Z,23.92
2023-05-20T15:04:47.802Z,23.85
2023-05-20T15:07:50.021Z,23.77
2023-05-20T15:10:51.480Z,23.72
2023-05-20T15:13:52.940Z,23.76
2023-05-20T15:16:54.402Z,23.71
2023-05-20T15:19:55.899Z,23.75
2023-05-20T15:22:59.161Z,23.78
2023-05-20T15:26:02.141Z,24.04
2023-05-20T15:29:03.881Z,23.99
2023-05-20T15:32:06.249Z,24.08
2023-05-20T15:35:08.769Z,24.29
2023-05-20T15:38:10.481Z,24.16
2023-05-20T15:41:16.161Z,24.14
2023-05-20T15:44:18.081Z,24.04
2023-05-20T15:47:19.810Z,24.15
2023-05-20T15:50:22.959Z,24.31
2023-05-20T15:53:24.681Z,24.31
2023-05-20T15:56:26.324Z,24.38
2023-05-20T15:59:27.872Z,24.25
2023-05-20T16:02:31.265Z,24.15
2023-05-20T16:05:33.775Z,24.00
2023-05-20T16:08:37.251Z,23.79
2023-05-20T16:11:38.837Z,23.70
2023-05-20T16:14:40.459Z,23.62
2023-05-20T16:17:41.916Z,23.62
2023-05-20T16:20:43.398Z,23.68
2023-05-20T16:23:45.311Z,23.61
2023-05-20T16:26:46.828Z,23.64
2023-05-20T16:29:49.917Z,23.66
2023-05-20T16:32:51.360Z,23.60
2023-05-20T16:35:52.875Z,23.58
2023-05-20T16:38:54.349Z,23.53
2023-05-20T16:41:55.844Z,23.48
2023-05-20T16:44:57.704Z,23.36
2023-05-20T16:47:59.159Z,23.50
2023-05-20T16:51:00.701Z,23.59
2023-05-20T16:54:02.137Z,23.42
2023-05-20T16:57:04.680Z,23.46
2023-05-20T17:00:08.243Z,23.65
2023-05-20T17:03:10.895Z,23.64
2023-05-20T17:06:12.527Z,23.65
2023-05-20T17:09:14.466Z,23.33
2023-05-20T17:12:15.890Z,22.98
2023-05-20T17:15:17.604Z,22.87
2023-05-20T17:18:19.124Z,22.80
2023-05-20T17:21:20.698Z,22.78
2023-05-20T17:24:22.185Z,22.78
2023-05-20T17:27:24.536Z,22.72
2023-05-20T17:30:27.154Z,22.40
2023-05-20T17:33:29.619Z,22.31
2023-05-20T17:36:32.263Z,22.24
2023-05-20T17:39:33.758Z,22.19
2023-05-20T17:42:35.548Z,22.10
2023-05-20T17:45:36.989Z,21.98
2023-05-20T17:48:40.529Z,21.91
2023-05-20T17:51:43.226Z,21.84
2023-05-20T17:54:44.668Z,21.71
2023-05-20T17:57:46.572Z,21.59
2023-05-20T18:00:48.046Z,21.43
2023-05-20T18:03:49.630Z,21.43
2023-05-20T18:06:51.197Z,21.34
2023-05-20T18:09:53.205Z,21.26
2023-05-20T18:12:56.528Z,21.19
2023-05-20T18:15:57.986Z,21.11
2023-05-20T18:18:59.686Z,20.97
2023-05-20T18:22:02.510Z,20.92
2023-05-20T18:25:04.780Z,20.89
2023-05-20T18:28:08.667Z,20.84
2023-05-20T18:31:10.558Z,20.78
2023-05-20T18:34:12.001Z,20.72
2023-05-20T18:37:13.449Z,20.66
2023-05-20T18:40:15.082Z,20.63
2023-05-20T18:43:16.509Z,20.58
2023-05-20T18:46:18.592Z,20.48
2023-05-20T18:49:20.150Z,20.45
2023-05-20T18:52:22.151Z,20.38
2023-05-20T18:55:24.520Z,20.32
2023-05-20T18:58:26.068Z,20.26
2023-05-20T19:01:27.602Z,20.19
2023-05-20T19:04:29.132Z,20.16
2023-05-20T19:07:30.613Z,20.09
2023-05-20T19:10:32.996Z,19.99
2023-05-20T19:13:34.644Z,19.94
2023-05-20T19:16:36.256Z,19.91
2023-05-20T19:19:37.705Z,19.83
2023-05-20T19:22:39.280Z,19.80
2023-05-20T19:25:40.846Z,19.74
2023-05-20T19:28:42.246Z,19.67
2023-05-20T19:31:43.804Z,19.63
2023-05-20T19:34:45.566Z,19.62
2023-05-20T19:37:47.025Z,19.54
2023-05-20T19:40:48.586Z,19.51
2023-05-20T19:43:50.128Z,19.45
2023-05-20T19:46:52.819Z,19.36
2023-05-20T19:49:54.829Z,19.31
2023-05-20T19:52:56.390Z,19.25
2023-05-20T19:55:57.914Z,19.19
2023-05-20T19:59:01.608Z,19.17
2023-05-20T20:02:04.031Z,19.13
2023-05-20T20:05:07.234Z,19.08
2023-05-20T20:08:09.717Z,19.03
2023-05-20T20:11:12.822Z,19.01
2023-05-20T20:14:14.258Z,18.93
2023-05-20T20:17:17.258Z,18.87
2023-05-20T20:20:19.257Z,18.84
2023-05-20T20:23:21.342Z,18.80
2023-05-20T20:26:25.655Z,18.79
2023-05-20T20:29:27.092Z,18.79
2023-05-20T20:32:28.629Z,18.77
2023-05-20T20:35:30.728Z,18.78
2023-05-20T20:38:32.370Z,18.73
2023-05-20T20:41:33.945Z,18.66
2023-05-20T20:44:35.445Z,18.61
2023-05-20T20:47:40.866Z,18.54
2023-05-20T20:50:43.692Z,18.48
2023-05-20T20:53:49.581Z,18.46
2023-05-20T20:56:51.847Z,18.43
2023-05-20T20:59:57.635Z,18.38
2023-05-20T21:02:59.188Z,18.35
2023-05-20T21:06:01.850Z,18.31
2023-05-20T21:09:03.921Z,18.33
2023-05-20T21:12:06.514Z,18.32
2023-05-20T21:15:09.865Z,18.24
2023-05-20T21:18:11.409Z,18.26
2023-05-20T21:21:14.754Z,18.18
2023-05-20T21:24:16.161Z,18.14
2023-05-20T21:27:17.576Z,18.17
2023-05-20T21:30:19.991Z,18.17
2023-05-20T21:33:21.405Z,18.12
2023-05-20T21:36:23.011Z,18.06
2023-05-20T21:39:24.489Z,18.01
2023-05-20T21:42:25.976Z,17.97
2023-05-20T21:45:27.403Z,18.01
2023-05-20T21:48:28.876Z,18.01
2023-05-20T21:51:31.357Z,17.94
2023-05-20T21:54:32.936Z,17.93
2023-05-20T21:57:34.484Z,17.89
2023-05-20T22:00:36.345Z,17.90
2023-05-20T22:03:39.627Z,17.92
2023-05-20T22:06:41.585Z,17.92
2023-05-20T22:09:43.011Z,17.89
2023-05-20T22:12:44.784Z,17.91
2023-05-20T22:15:46.395Z,17.87
2023-05-20T22:18:49.567Z,17.83
2023-05-20T22:21:51.350Z,17.82
2023-05-20T22:24:52.812Z,17.67
2023-05-20T22:27:54.380Z,17.63
2023-05-20T22:30:56.097Z,17.70
2023-05-20T22:33:57.622Z,17.66
2023-05-20T22:36:59.045Z,17.71
2023-05-20T22:40:00.648Z,17.71
2023-05-20T22:43:02.059Z,17.66
2023-05-20T22:46:03.585Z,17.62
2023-05-20T22:49:05.575Z,17.61
2023-05-20T22:52:07.684Z,17.70
2023-05-20T22:55:09.353Z,17.77
2023-05-20T22:58:12.182Z,17.83
2023-05-20T23:01:16.522Z,17.83
2023-05-20T23:04:18.146Z,17.80
2023-05-20T23:07:19.617Z,17.68
2023-05-20T23:10:21.321Z,17.68
2023-05-20T23:13:22.826Z,17.74
2023-05-20T23:16:26.269Z,17.73
2023-05-20T23:19:27.958Z,17.71
2023-05-20T23:22:30.208Z,17.75
2023-05-20T23:25:31.774Z,17.83
2023-05-20T23:28:33.258Z,17.83
2023-05-20T23:31:34.859Z,17.72
2023-05-20T23:34:36.295Z,17.76
2023-05-20T23:37:38.800Z,17.68
2023-05-20T23:40:40.241Z,17.56
2023-05-20T23:43:42.749Z,17.52
2023-05-20T23:46:44.845Z,17.53
2023-05-20T23:49:49.226Z,17.52
2023-05-20T23:52:50.966Z,17.48
2023-05-20T23:55:52.375Z,17.44
2023-05-20T23:58:53.792Z,17.40
